Time;durP1;ratioP1;P1;durP2;ratioP2;P2;SDS_P1;SDS_P2;PMS_P1;PMS_P2;Temp;Humidity;BMP_temperature;BMP_pressure;BME280_temperature;BME280_humidity;BME280_pressure;Samples;Min_cycle;Max_cycle;Signal;HPM_P1;HPM_P2
2023/05/25 00:01:15;;;;;;;21.30;12.03;;;8.80;99.90;;;;;;2610526;54;20133;-72
2023/05/25 00:10:59;;;;;;;18.50;13.00;;;8.60;99.90;;;;;;2610877;54;21008;-71
2023/05/25 00:16:47;;;;;;;18.90;13.07;;;8.70;99.90;;;;;;2610666;39;20558;-72
2023/05/25 00:22:38;;;;;;;26.33;13.73;;;8.60;99.90;;;;;;2614008;54;20411;-71
2023/05/25 00:28:25;;;;;;;22.43;12.57;;;8.30;99.90;;;;;;2612990;54;20367;-71
2023/05/25 00:34:13;;;;;;;17.43;12.40;;;8.30;99.90;;;;;;2614061;39;20685;-72
2023/05/25 00:40:01;;;;;;;18.67;13.33;;;8.00;99.90;;;;;;2610997;39;20252;-71
2023/05/25 00:45:50;;;;;;;21.93;13.33;;;7.90;99.90;;;;;;2609831;54;20681;-71
2023/05/25 00:51:38;;;;;;;16.63;13.27;;;7.90;99.90;;;;;;2610156;54;20354;-71
2023/05/25 00:57:28;;;;;;;21.20;13.50;;;7.70;99.90;;;;;;2614692;39;20942;-72
2023/05/25 01:03:20;;;;;;;25.17;12.97;;;7.60;99.90;;;;;;2612695;54;20569;-72
2023/05/25 01:06:25;;;;;;;17.77;12.93;;;7.60;99.90;;;;;;2612076;54;20411;-71
2023/05/25 01:08:59;;;;;;;20.50;13.53;;;7.50;99.90;;;;;;2612875;54;20511;-72
2023/05/25 01:14:47;;;;;;;15.40;11.70;;;7.60;99.90;;;;;;2611592;54;20465;-72
2023/05/25 01:20:35;;;;;;;20.10;13.80;;;7.60;99.90;;;;;;2610843;54;20974;-72
2023/05/25 01:26:27;;;;;;;21.60;13.97;;;7.70;99.90;;;;;;2609991;46;20178;-72
2023/05/25 01:32:17;;;;;;;18.97;13.87;;;7.60;99.90;;;;;;2610611;54;20961;-72
2023/05/25 01:38:05;;;;;;;19.10;13.07;;;7.40;99.90;;;;;;2609422;54;20377;-71
2023/05/25 01:43:53;;;;;;;16.07;13.13;;;7.20;99.90;;;;;;2610015;54;20976;-73
2023/05/25 01:56:17;;;;;;;17.67;14.87;;;7.30;99.90;;;;;;2610474;39;20877;-71
2023/05/25 02:02:06;;;;;;;25.03;13.50;;;7.20;99.90;;;;;;2610479;54;20423;-72
2023/05/25 02:11:15;;;;;;;20.67;13.33;;;7.20;99.90;;;;;;2608428;54;20503;-72
2023/05/25 02:17:03;;;;;;;21.20;14.70;;;7.10;99.90;;;;;;2610146;54;20556;-70
2023/05/25 02:22:51;;;;;;;21.30;13.17;;;6.70;99.90;;;;;;2609972;54;20165;-70
2023/05/25 02:28:39;;;;;;;20.50;13.63;;;6.90;99.90;;;;;;2613301;54;20710;-70
2023/05/25 02:34:27;;;;;;;18.40;14.73;;;6.80;99.90;;;;;;2613127;54;20143;-70
2023/05/25 02:40:16;;;;;;;21.50;13.70;;;6.80;99.90;;;;;;2610104;39;20698;-70
2023/05/25 02:46:04;;;;;;;16.90;13.27;;;6.80;99.90;;;;;;2608469;54;20460;-70
2023/05/25 02:51:52;;;;;;;20.03;13.80;;;6.90;99.90;;;;;;2608703;54;20126;-70
2023/05/25 02:57:40;;;;;;;22.63;14.20;;;6.80;99.90;;;;;;2610132;39;20499;-70
2023/05/25 03:03:27;;;;;;;22.53;14.73;;;6.70;99.90;;;;;;2608330;54;20211;-70
2023/05/25 03:09:24;;;;;;;26.27;13.73;;;6.70;99.90;;;;;;2607996;54;20729;-69
2023/05/25 03:15:12;;;;;;;16.50;14.33;;;6.60;99.90;;;;;;2612501;54;20130;-70
2023/05/25 03:20:59;;;;;;;27.53;15.23;;;6.70;99.90;;;;;;2609388;54;20398;-70
2023/05/25 03:30:16;;;;;;;29.83;16.17;;;6.50;99.90;;;;;;2612617;54;20500;-70
2023/05/25 03:36:07;;;;;;;23.53;14.93;;;6.60;99.90;;;;;;2607857;54;20495;-70
2023/05/25 03:41:55;;;;;;;20.10;15.23;;;6.40;99.90;;;;;;2608671;54;20932;-70
2023/05/25 03:47:44;;;;;;;24.40;14.77;;;6.40;99.90;;;;;;2610418;54;20880;-70
2023/05/25 03:53:31;;;;;;;25.53;14.93;;;6.40;99.90;;;;;;2610726;54;20861;-69
2023/05/25 03:59:19;;;;;;;24.37;16.03;;;6.50;99.90;;;;;;2610652;54;20202;-71
2023/05/25 04:05:07;;;;;;;19.13;15.53;;;6.50;99.90;;;;;;2610765;54;20130;-72
2023/05/25 04:10:56;;;;;;;25.80;17.53;;;6.60;99.90;;;;;;2609909;54;20565;-70
2023/05/25 04:16:44;;;;;;;26.63;15.40;;;6.70;99.90;;;;;;2609305;54;20402;-71
2023/05/25 04:22:32;;;;;;;20.97;15.23;;;6.90;99.90;;;;;;2610091;54;20375;-69
2023/05/25 04:28:20;;;;;;;17.90;15.60;;;7.00;99.90;;;;;;2612857;54;20126;-69
2023/05/25 04:34:08;;;;;;;22.13;15.67;;;7.30;99.90;;;;;;2610397;54;20172;-71
2023/05/25 04:39:57;;;;;;;23.30;17.33;;;7.60;99.90;;;;;;2613453;54;20371;-70
2023/05/25 04:45:45;;;;;;;29.87;17.10;;;8.10;99.90;;;;;;2612574;54;20403;-70
2023/05/25 04:51:33;;;;;;;28.60;17.33;;;8.90;99.90;;;;;;2612269;54;20355;-69
2023/05/25 04:57:21;;;;;;;21.00;16.87;;;9.30;99.90;;;;;;2610211;54;20273;-70
2023/05/25 05:03:10;;;;;;;34.47;19.83;;;9.70;99.90;;;;;;2611308;39;20454;-69
2023/05/25 05:08:57;;;;;;;24.53;19.93;;;10.10;99.90;;;;;;2614175;54;20391;-69
2023/05/25 05:14:45;;;;;;;30.17;18.30;;;10.50;99.90;;;;;;2612388;54;20153;-70
2023/05/25 05:20:33;;;;;;;22.50;19.73;;;11.00;99.90;;;;;;2614681;54;20193;-70
2023/05/25 05:26:21;;;;;;;20.57;18.37;;;10.90;99.90;;;;;;2614791;54;20359;-70
2023/05/25 05:32:09;;;;;;;22.30;17.70;;;10.70;99.90;;;;;;2613879;54;20483;-70
2023/05/25 05:37:57;;;;;;;23.30;18.10;;;10.80;99.90;;;;;;2612264;54;20146;-69
2023/05/25 05:43:45;;;;;;;18.60;16.80;;;11.10;99.90;;;;;;2613432;54;20158;-70
2023/05/25 05:49:33;;;;;;;22.87;15.23;;;12.00;99.90;;;;;;2614321;54;20367;-70
2023/05/25 05:55:20;;;;;;;18.17;15.90;;;12.60;99.90;;;;;;2614326;39;20620;-70
2023/05/25 06:01:08;;;;;;;22.73;16.90;;;13.00;99.90;;;;;;2613167;54;20127;-69
2023/05/25 06:06:57;;;;;;;16.83;15.10;;;13.10;99.90;;;;;;2614387;54;20129;-70
2023/05/25 06:12:44;;;;;;;25.60;18.17;;;13.40;99.90;;;;;;2613582;54;20467;-70
2023/05/25 06:18:32;;;;;;;18.43;16.50;;;13.50;99.90;;;;;;2613789;54;20174;-70
2023/05/25 06:24:20;;;;;;;18.53;16.03;;;13.40;99.90;;;;;;2613669;54;20122;-71
2023/05/25 06:30:08;;;;;;;17.60;16.07;;;13.90;99.90;;;;;;2613901;54;20254;-70
2023/05/25 06:35:59;;;;;;;18.47;15.87;;;13.90;99.90;;;;;;2613557;54;20442;-69
2023/05/25 06:41:46;;;;;;;17.77;16.10;;;14.40;99.90;;;;;;2613649;54;20391;-70
2023/05/25 06:47:34;;;;;;;17.70;15.37;;;14.30;99.90;;;;;;2614760;54;20150;-69
2023/05/25 06:53:22;;;;;;;17.53;15.97;;;14.10;99.90;;;;;;2614243;54;20434;-70
2023/05/25 06:59:10;;;;;;;19.37;17.37;;;14.90;99.90;;;;;;2613973;54;20202;-70
2023/05/25 07:04:57;;;;;;;17.47;15.57;;;14.80;99.90;;;;;;2614812;54;20145;-70
2023/05/25 07:10:45;;;;;;;18.40;16.90;;;15.80;99.90;;;;;;2615035;54;20235;-70
2023/05/25 07:16:33;;;;;;;18.63;17.03;;;14.70;99.90;;;;;;2614421;39;20523;-70
2023/05/25 07:22:22;;;;;;;17.40;16.10;;;15.40;99.90;;;;;;2614175;54;20336;-70
2023/05/25 07:25:47;;;;;;;16.97;15.47;;;15.20;99.90;;;;;;2613694;54;20403;-70
2023/05/25 07:31:35;;;;;;;17.10;15.90;;;14.60;99.90;;;;;;2614987;54;20371;-70
2023/05/25 07:37:22;;;;;;;19.43;17.53;;;14.20;99.90;;;;;;2613601;54;20383;-69
2023/05/25 07:43:10;;;;;;;18.40;16.57;;;14.10;99.90;;;;;;2614159;54;20114;-70
2023/05/25 07:48:58;;;;;;;20.77;18.83;;;14.00;99.90;;;;;;2614779;54;20162;-69
2023/05/25 07:54:46;;;;;;;19.23;17.50;;;14.60;99.90;;;;;;2614210;39;20801;-72
2023/05/25 08:00:34;;;;;;;19.50;18.00;;;14.30;99.90;;;;;;2613668;54;20648;-74
2023/05/25 08:06:22;;;;;;;18.53;16.67;;;14.90;99.90;;;;;;2612810;54;20158;-73
2023/05/25 08:12:10;;;;;;;17.50;16.00;;;15.00;99.90;;;;;;2613940;54;20400;-74
2023/05/25 08:17:57;;;;;;;17.40;16.20;;;14.80;99.90;;;;;;2613564;54;20271;-73
2023/05/25 08:21:15;;;;;;;18.43;16.63;;;14.90;99.90;;;;;;2614493;54;20423;-74
2023/05/25 08:23:41;;;;;;;17.87;16.57;;;14.80;99.90;;;;;;2614331;47;20198;-74
2023/05/25 08:29:29;;;;;;;19.07;17.33;;;14.80;99.90;;;;;;2614876;54;21382;-73
2023/05/25 08:35:17;;;;;;;18.60;16.90;;;15.10;99.90;;;;;;2613906;54;20366;-74
2023/05/25 08:41:05;;;;;;;17.37;15.73;;;15.30;99.90;;;;;;2614682;54;20118;-73
2023/05/25 08:46:56;;;;;;;16.33;14.97;;;15.10;99.90;;;;;;2614041;46;20399;-73
2023/05/25 08:52:45;;;;;;;18.07;16.40;;;14.90;99.90;;;;;;2613904;54;20411;-74
2023/05/25 08:58:39;;;;;;;17.00;15.67;;;15.10;99.90;;;;;;2613410;54;20386;-74
2023/05/25 09:04:28;;;;;;;17.47;16.17;;;15.10;99.90;;;;;;2614706;54;20989;-74
2023/05/25 09:10:16;;;;;;;19.07;17.67;;;16.00;99.90;;;;;;2614315;54;20416;-74
2023/05/25 09:16:05;;;;;;;19.10;17.60;;;15.60;99.90;;;;;;2613656;54;20257;-73
2023/05/25 09:25:49;;;;;;;18.70;17.37;;;16.20;99.90;;;;;;2614399;39;20819;-73
2023/05/25 09:31:37;;;;;;;19.40;17.70;;;16.40;99.90;;;;;;2614693;54;20416;-73
2023/05/25 09:37:26;;;;;;;18.90;16.67;;;15.50;99.90;;;;;;2614580;54;20396;-74
2023/05/25 09:43:14;;;;;;;19.53;17.67;;;15.60;99.90;;;;;;2614767;54;20351;-73
2023/05/25 09:49:07;;;;;;;18.53;17.00;;;15.70;99.90;;;;;;2614436;54;20411;-73
2023/05/25 09:54:56;;;;;;;18.43;17.13;;;15.80;99.90;;;;;;2613610;54;20383;-73
2023/05/25 10:00:44;;;;;;;18.03;16.47;;;15.10;99.90;;;;;;2614307;54;20412;-73
2023/05/25 10:06:33;;;;;;;18.00;16.70;;;14.80;99.90;;;;;;2613506;54;20431;-73
2023/05/25 10:12:23;;;;;;;16.80;15.73;;;14.80;99.90;;;;;;2614205;54;20387;-73
2023/05/25 10:18:14;;;;;;;18.30;17.10;;;15.10;99.90;;;;;;2613070;39;20815;-74
2023/05/25 10:21:17;;;;;;;17.43;16.03;;;14.90;99.90;;;;;;2613788;54;20396;-73
2023/05/25 10:23:51;;;;;;;18.73;17.23;;;14.70;99.90;;;;;;2613552;47;20423;-72
2023/05/25 10:29:39;;;;;;;17.30;16.10;;;15.10;99.90;;;;;;2614040;54;20414;-73
2023/05/25 10:35:27;;;;;;;18.77;17.43;;;15.40;99.90;;;;;;2613856;54;20138;-72
2023/05/25 10:41:16;;;;;;;17.57;16.30;;;15.80;99.90;;;;;;2613936;54;20355;-74
2023/05/25 10:47:05;;;;;;;17.97;16.40;;;16.00;99.90;;;;;;2613891;54;20404;-73
2023/05/25 10:53:01;;;;;;;18.83;17.53;;;16.60;99.90;;;;;;2614434;54;20442;-73
2023/05/25 10:58:52;;;;;;;18.07;16.77;;;16.10;99.90;;;;;;2614061;54;20500;-73
2023/05/25 11:04:40;;;;;;;19.17;17.30;;;15.70;99.90;;;;;;2612916;54;20391;-74
2023/05/25 11:10:46;;;;;;;18.20;16.83;;;16.30;99.90;;;;;;2614231;54;20154;-73
2023/05/25 11:16:38;;;;;;;18.00;16.80;;;16.10;99.90;;;;;;2614141;54;20411;-74
2023/05/25 11:25:48;;;;;;;20.30;18.60;;;16.30;99.90;;;;;;2613677;54;20418;-73
2023/05/25 11:31:36;;;;;;;22.70;20.67;;;17.40;95.80;;;;;;2613978;54;20199;-73
2023/05/25 11:37:27;;;;;;;26.97;24.37;;;16.80;91.20;;;;;;2614935;54;20126;-73
2023/05/25 11:43:16;;;;;;;18.27;16.93;;;16.50;92.70;;;;;;2614821;54;20383;-73
2023/05/25 11:49:03;;;;;;;17.60;16.23;;;16.80;90.10;;;;;;2613283;54;20372;-72
2023/05/25 11:54:51;;;;;;;17.10;15.80;;;16.30;92.10;;;;;;2614702;54;20247;-72
2023/05/25 12:00:39;;;;;;;16.90;15.53;;;16.50;93.60;;;;;;2615570;39;20772;-72
2023/05/25 12:06:39;;;;;;;18.43;16.97;;;16.70;88.60;;;;;;2615216;54;20371;-73
2023/05/25 12:12:26;;;;;;;17.77;16.03;;;16.70;91.80;;;;;;2615047;39;20723;-74
2023/05/25 12:18:14;;;;;;;18.77;17.30;;;16.60;85.70;;;;;;2614676;54;20138;-73
2023/05/25 12:21:17;;;;;;;17.40;16.13;;;16.70;85.00;;;;;;2614058;54;20404;-73
2023/05/25 12:23:43;;;;;;;18.03;16.73;;;16.70;89.10;;;;;;2613806;54;20454;-73
2023/05/25 12:29:30;;;;;;;17.07;16.00;;;17.70;73.70;;;;;;2613522;54;20398;-73
2023/05/25 12:35:19;;;;;;;18.40;17.10;;;18.20;56.20;;;;;;2614035;46;20153;-72
2023/05/25 12:41:07;;;;;;;19.10;17.57;;;18.00;55.50;;;;;;2614985;39;20891;-73
2023/05/25 12:46:55;;;;;;;19.17;17.50;;;17.80;59.70;;;;;;2613948;54;20941;-73
2023/05/25 12:52:45;;;;;;;19.73;18.23;;;18.90;51.70;;;;;;2614543;54;20411;-73
2023/05/25 12:58:32;;;;;;;19.37;17.77;;;18.40;47.40;;;;;;2613702;54;20399;-73
2023/05/25 13:04:20;;;;;;;19.53;18.33;;;17.60;51.60;;;;;;2614481;54;20299;-74
2023/05/25 13:10:09;;;;;;;17.90;16.50;;;17.80;53.80;;;;;;2614824;54;20122;-72
2023/05/25 13:15:57;;;;;;;18.30;17.10;;;19.50;42.80;;;;;;2614766;46;20379;-73
2023/05/25 13:25:50;;;;;;;18.07;16.57;;;20.90;30.40;;;;;;2613161;54;20502;-71
2023/05/25 13:31:38;;;;;;;20.30;18.87;;;18.80;37.30;;;;;;2614805;39;20770;-71
2023/05/25 13:37:26;;;;;;;21.40;19.63;;;18.70;32.50;;;;;;2614684;54;20145;-72
2023/05/25 13:43:14;;;;;;;17.73;16.57;;;19.30;34.70;;;;;;2613306;54;20371;-72
2023/05/25 13:49:02;;;;;;;18.63;17.40;;;20.20;30.00;;;;;;2614287;54;20138;-72
2023/05/25 13:54:50;;;;;;;19.07;17.77;;;20.20;29.00;;;;;;2614354;54;20395;-71
2023/05/25 14:00:38;;;;;;;18.50;17.37;;;20.90;25.10;;;;;;2613914;54;20652;-72
2023/05/25 14:06:26;;;;;;;19.87;18.20;;;20.10;30.70;;;;;;2614783;39;20600;-71
2023/05/25 14:12:13;;;;;;;18.20;17.17;;;19.60;27.80;;;;;;2614552;54;20621;-72
2023/05/25 14:18:01;;;;;;;21.57;19.90;;;20.10;27.30;;;;;;2613272;54;20121;-73
2023/05/25 14:21:18;;;;;;;20.93;19.27;;;19.70;26.30;;;;;;2614841;39;20749;-73
2023/05/25 14:23:43;;;;;;;21.37;19.63;;;20.60;25.00;;;;;;2614030;54;20151;-73
2023/05/25 14:29:31;;;;;;;19.20;17.97;;;21.10;23.90;;;;;;2614530;39;20209;-73
2023/05/25 14:35:19;;;;;;;19.03;17.80;;;20.20;25.30;;;;;;2613983;54;20218;-73
2023/05/25 14:41:06;;;;;;;18.97;17.37;;;21.00;22.80;;;;;;2613357;54;20491;-71
2023/05/25 14:46:54;;;;;;;17.33;16.23;;;20.50;23.30;;;;;;2614262;54;20134;-71
2023/05/25 14:52:42;;;;;;;18.33;17.23;;;21.10;19.90;;;;;;2614240;54;20388;-71
2023/05/25 14:58:31;;;;;;;19.97;18.43;;;22.00;19.50;;;;;;2613832;54;20127;-71
2023/05/25 15:04:19;;;;;;;20.60;18.83;;;20.10;23.80;;;;;;2613871;54;20355;-71
2023/05/25 15:10:07;;;;;;;17.97;16.87;;;19.70;27.90;;;;;;2614519;54;20395;-72
2023/05/25 15:15:56;;;;;;;20.37;18.97;;;19.90;26.70;;;;;;2615263;54;20414;-72
2023/05/25 15:25:50;;;;;;;18.30;17.00;;;19.80;22.80;;;;;;2611515;54;20362;-72
2023/05/25 15:31:37;;;;;;;19.37;17.93;;;19.80;26.30;;;;;;2614822;39;20432;-72
2023/05/25 15:37:25;;;;;;;19.23;17.93;;;20.00;24.20;;;;;;2614068;54;20872;-72
2023/05/25 15:43:12;;;;;;;18.60;17.27;;;20.00;23.50;;;;;;2614789;54;20154;-71
2023/05/25 15:49:00;;;;;;;18.30;17.30;;;20.20;23.20;;;;;;2614846;54;20131;-72
2023/05/25 15:54:48;;;;;;;16.53;15.53;;;19.40;20.50;;;;;;2613289;54;20134;-72
2023/05/25 15:57:51;;;;;;;18.80;17.30;;;19.00;22.80;;;;;;2614632;39;20753;-72
2023/05/25 16:00:17;;;;;;;16.87;15.80;;;19.00;24.90;;;;;;2613687;54;20700;-72
2023/05/25 16:06:05;;;;;;;18.00;16.73;;;20.50;20.90;;;;;;2614588;54;20126;-72
2023/05/25 16:11:52;;;;;;;17.90;16.37;;;20.80;19.00;;;;;;2615318;39;20488;-72
2023/05/25 16:17:40;;;;;;;18.60;17.33;;;21.10;18.20;;;;;;2614307;46;20197;-72
2023/05/25 16:23:28;;;;;;;18.17;16.67;;;21.80;15.50;;;;;;2614423;54;20182;-72
2023/05/25 16:29:15;;;;;;;20.10;18.50;;;20.40;19.60;;;;;;2614354;54;20129;-73
2023/05/25 16:35:03;;;;;;;18.93;17.63;;;20.10;23.20;;;;;;2613263;54;20134;-72
2023/05/25 16:40:51;;;;;;;18.67;17.17;;;19.80;22.60;;;;;;2613643;54;20395;-72
2023/05/25 16:46:39;;;;;;;19.97;18.60;;;19.30;23.00;;;;;;2613958;54;20127;-71
2023/05/25 16:52:26;;;;;;;18.90;17.60;;;19.00;25.80;;;;;;2615475;39;20245;-72
2023/05/25 16:58:14;;;;;;;18.57;17.27;;;19.20;25.90;;;;;;2612897;54;20146;-72
2023/05/25 17:04:01;;;;;;;18.97;17.77;;;18.90;25.00;;;;;;2614551;54;20127;-73
2023/05/25 17:09:49;;;;;;;20.23;18.67;;;19.00;23.10;;;;;;2613132;54;20146;-72
2023/05/25 17:15:37;;;;;;;19.43;17.97;;;19.20;23.20;;;;;;2614838;39;20533;-73
2023/05/25 17:28:09;;;;;;;17.60;16.57;;;18.80;27.00;;;;;;2614175;54;20368;-72
2023/05/25 17:33:57;;;;;;;20.80;18.63;;;18.00;29.00;;;;;;2614433;54;20122;-72
2023/05/25 17:39:45;;;;;;;19.80;18.13;;;17.80;29.70;;;;;;2613638;39;20630;-72
2023/05/25 17:45:32;;;;;;;19.33;17.63;;;17.50;30.20;;;;;;2613787;54;20174;-72
2023/05/25 17:51:20;;;;;;;18.60;17.00;;;17.50;32.20;;;;;;2613508;54;20131;-71
2023/05/25 17:57:08;;;;;;;18.83;17.53;;;17.40;31.20;;;;;;2614166;54;20181;-72
2023/05/25 18:02:55;;;;;;;17.30;16.07;;;17.40;31.80;;;;;;2613409;39;20531;-72
2023/05/25 18:08:43;;;;;;;19.10;17.27;;;17.30;37.30;;;;;;2613133;54;20118;-72
2023/05/25 18:14:34;;;;;;;18.50;16.63;;;17.10;41.00;;;;;;2613836;54;20126;-72
2023/05/25 18:20:21;;;;;;;18.03;16.43;;;17.00;44.60;;;;;;2614434;39;20726;-72
2023/05/25 18:26:09;;;;;;;18.53;17.23;;;16.90;39.20;;;;;;2614308;54;20142;-73
2023/05/25 18:31:57;;;;;;;34.70;25.90;;;16.70;43.00;;;;;;2613400;54;20138;-73
2023/05/25 18:37:44;;;;;;;29.30;24.10;;;16.60;47.80;;;;;;2613989;54;20314;-72
2023/05/25 18:43:32;;;;;;;18.90;17.27;;;16.40;53.30;;;;;;2613776;54;20219;-71
2023/05/25 18:49:20;;;;;;;29.63;17.83;;;16.30;53.60;;;;;;2614572;39;20798;-71
2023/05/25 18:55:08;;;;;;;18.63;17.23;;;16.20;56.50;;;;;;2613336;54;20114;-72
2023/05/25 19:00:56;;;;;;;17.83;16.37;;;15.90;74.50;;;;;;2615057;54;20423;-72
2023/05/25 19:06:43;;;;;;;18.20;17.00;;;15.70;90.00;;;;;;2614663;54;20115;-72
2023/05/25 19:12:31;;;;;;;18.77;17.23;;;15.50;96.00;;;;;;2615438;39;21326;-72
2023/05/25 19:18:19;;;;;;;18.07;16.53;;;15.40;99.90;;;;;;2614883;54;20129;-73
2023/05/25 19:21:19;;;;;;;19.17;17.37;;;15.20;99.90;;;;;;2614540;54;20384;-73
2023/05/25 19:23:44;;;;;;;18.57;16.70;;;15.10;99.90;;;;;;2613725;46;20189;-72
2023/05/25 19:29:32;;;;;;;17.00;15.70;;;14.80;99.90;;;;;;2614641;54;20149;-72
2023/05/25 19:35:20;;;;;;;17.70;16.20;;;14.50;99.90;;;;;;2614435;54;20187;-71
2023/05/25 19:41:09;;;;;;;17.77;15.10;;;14.40;99.90;;;;;;2614552;54;20130;-72
2023/05/25 19:46:57;;;;;;;17.07;15.60;;;14.00;99.90;;;;;;2614243;54;20937;-72
2023/05/25 19:52:45;;;;;;;16.97;15.27;;;13.70;99.90;;;;;;2614765;54;20363;-72
2023/05/25 19:58:33;;;;;;;16.50;15.10;;;13.50;99.90;;;;;;2614966;54;20367;-72
2023/05/25 20:04:20;;;;;;;15.37;13.90;;;13.50;99.90;;;;;;2613827;54;20146;-72
2023/05/25 20:10:08;;;;;;;15.90;14.30;;;13.10;99.90;;;;;;2614162;54;20134;-71
2023/05/25 20:15:56;;;;;;;17.37;15.47;;;13.00;99.90;;;;;;2614812;54;20139;-72
2023/05/25 20:25:46;;;;;;;16.07;14.30;;;12.90;99.90;;;;;;2612846;54;20403;-71
2023/05/25 20:31:34;;;;;;;14.97;13.83;;;12.60;99.90;;;;;;2613961;39;20737;-71
2023/05/25 20:37:21;;;;;;;15.80;14.17;;;12.50;99.90;;;;;;2614290;54;20178;-72
2023/05/25 20:43:09;;;;;;;17.07;15.57;;;12.30;99.90;;;;;;2613075;39;20543;-71
2023/05/25 20:48:57;;;;;;;21.57;15.57;;;12.70;99.90;;;;;;2614301;54;20215;-72
2023/05/25 20:54:45;;;;;;;21.53;13.90;;;13.40;99.90;;;;;;2613793;54;20123;-72
2023/05/25 21:00:32;;;;;;;15.30;14.03;;;13.40;99.90;;;;;;2614175;54;20239;-71
2023/05/25 21:06:21;;;;;;;18.83;15.53;;;13.50;99.90;;;;;;2613756;54;20267;-72
2023/05/25 21:12:09;;;;;;;18.27;15.70;;;13.50;99.90;;;;;;2614716;54;20371;-72
2023/05/25 21:17:57;;;;;;;21.73;14.53;;;13.40;99.90;;;;;;2614524;54;20654;-71
2023/05/25 21:21:17;;;;;;;19.53;15.23;;;13.30;99.90;;;;;;2612086;54;20407;-71
2023/05/25 21:23:43;;;;;;;16.13;14.53;;;13.20;99.90;;;;;;2613976;54;20258;-72
2023/05/25 21:29:30;;;;;;;23.90;15.23;;;13.00;99.90;;;;;;2614068;54;20242;-71
2023/05/25 21:35:18;;;;;;;23.37;15.93;;;12.80;99.90;;;;;;2614611;39;20621;-72
2023/05/25 21:41:06;;;;;;;24.93;15.93;;;12.90;99.90;;;;;;2614003;54;20153;-72
2023/05/25 21:46:53;;;;;;;19.33;14.63;;;12.80;99.90;;;;;;2614759;54;20147;-71
2023/05/25 21:52:41;;;;;;;26.20;15.47;;;12.70;99.90;;;;;;2613131;54;20122;-72
2023/05/25 21:58:29;;;;;;;21.93;15.70;;;12.70;99.90;;;;;;2614298;54;20145;-72
2023/05/25 22:04:17;;;;;;;19.30;15.80;;;12.60;99.90;;;;;;2612810;54;20141;-72
2023/05/25 22:10:05;;;;;;;18.40;14.10;;;12.50;99.90;;;;;;2613708;54;20143;-72
2023/05/25 22:15:53;;;;;;;25.80;15.07;;;12.40;99.90;;;;;;2614282;54;20371;-72
2023/05/25 22:25:46;;;;;;;37.37;16.43;;;12.20;99.90;;;;;;2614054;54;20896;-71
2023/05/25 22:31:34;;;;;;;22.93;15.40;;;12.20;99.90;;;;;;2614409;54;20390;-72
2023/05/25 22:37:21;;;;;;;26.67;15.47;;;12.10;99.90;;;;;;2613386;46;20161;-71
2023/05/25 22:43:11;;;;;;;25.07;14.33;;;11.90;99.90;;;;;;2613523;39;20540;-72
2023/05/25 22:48:58;;;;;;;20.93;14.37;;;11.70;99.90;;;;;;2614266;54;20925;-72
2023/05/25 22:54:46;;;;;;;23.43;15.70;;;11.60;99.90;;;;;;2613395;54;20123;-73
2023/05/25 23:00:34;;;;;;;24.73;14.93;;;11.50;99.90;;;;;;2614323;54;20153;-72
2023/05/25 23:06:22;;;;;;;20.60;14.03;;;11.50;99.90;;;;;;2613651;54;20163;-71
2023/05/25 23:12:09;;;;;;;22.67;13.30;;;11.40;99.90;;;;;;2614161;54;20230;-71
2023/05/25 23:17:57;;;;;;;23.70;14.13;;;11.20;99.90;;;;;;2613574;54;20147;-72
2023/05/25 23:21:17;;;;;;;16.37;13.57;;;11.20;99.90;;;;;;2613745;47;20402;-73
2023/05/25 23:23:43;;;;;;;31.60;16.20;;;11.10;99.90;;;;;;2613824;54;20140;-71
2023/05/25 23:29:30;;;;;;;37.33;14.60;;;11.00;99.90;;;;;;2615056;54;20126;-72
2023/05/25 23:35:18;;;;;;;17.90;13.30;;;10.90;99.90;;;;;;2613600;54;20165;-72
2023/05/25 23:41:06;;;;;;;28.40;13.87;;;10.70;99.90;;;;;;2613972;39;20611;-72
2023/05/25 23:46:54;;;;;;;21.70;12.70;;;10.60;99.90;;;;;;2613275;54;20379;-72
2023/05/25 23:52:41;;;;;;;23.40;12.60;;;10.60;99.90;;;;;;2611719;54;20255;-72
2023/05/25 23:58:29;;;;;;;24.37;12.83;;;10.50;99.90;;;;;;2614449;54;20142;-72
